METAR Data
IDs: Format: Raw Decoded Include TAF

Data at: 0316 UTC 25 Jan 2020

PASC 250253Z 27011KT 9SM -SN OVC050 M27/M30 A3031 RMK AO2 UPB19E49SNB50 SLP266 T12671300 58001
PASC 250153Z 26010KT 10SM OVC050 M26/M29 A3031 RMK AO2 SNE43 SLP266 T12611289
PASC 250053Z 27011KT 8SM -SN OVC055 M26/M29 A3031 RMK AO2 SLP269 T12561289
PASC 242353Z 27012KT 6SM -SN BR OVC050 M25/M28 A3031 RMK AO2 UPE2254SNB2254 SLP267 T12501283 11250 21267 58000
PASC 242253Z 28012KT 5SM OVC055 M25/M28 A3031 RMK AO2 UPB2159 SLP268 T12501283
PASC 242153Z 28011KT 10SM OVC055 M25/M28 A3031 RMK AO2 SLP268 T12501283
PASC 242053Z 27011KT 6SM BR OVC055 M25/M28 A3031 RMK AO2 UPB12E49 SLP268 T12501283 51004
PASC 241953Z 27011KT 9SM OVC055 M25/M28 A3031 RMK AO2 SLP267 T12501278
PASC 241853Z 26009KT 10SM OVC050 M26/M28 A3031 RMK AO2 SLP266 T12561283
PASC 241753Z 25008KT 10SM OVC050 M27/M29 A3030 RMK AO2 SLP263 T12671294 11267 21322 53004
PASC 241653Z 24010KT 10SM OVC050 M28/M31 A3030 RMK AO2 SLP262 T12781311
PASC 241553Z 25010KT 10SM OVC050 M28/M31 A3028 RMK AO2 SLP259 T12831311
PASC 241453Z 25010KT 10SM OVC055 M31/M34 A3029 RMK AO2 SLP259 T13061339 53002
PASC 241420Z 25012KT 10SM SCT012 SCT048 M31/M34 A3029 RMK AO2 T13061339
PASC 241353Z 24010KT 10SM OVC011 M32/M34 A3029 RMK AO2 SLP260 T13171344
PASC 241324Z 24010KT 10SM OVC010 M32/M35 A3028 RMK AO2 T13171350
PASC 241303Z 24010KT 10SM BKN009 M32/M35 A3028 RMK AO2 T13171350
PASC 241253Z 24010KT 10SM SCT009 M32/M34 A3028 RMK AO2 SLP256 T13171344
PASC 241243Z 24011KT 10SM FEW009 M32/M34 A3028 RMK AO2 T13171344
PASC 241153Z 23011KT 10SM CLR M32/M34 A3028 RMK AO2 SLP257 T13171344 11283 21317 51015
PASC 241053Z 23010KT 9SM CLR M32/M35 A3027 RMK AO2 SLP252 T13171350
PASC 240953Z 24010KT 10SM CLR M31/M34 A3025 RMK AO2 SLP248 T13111344
PASC 240853Z 24011KT 10SM SCT004 M29/M33 A3024 RMK AO2 SLP243 T12941328 412171294 53015
PASC 240800Z 26012KT 10SM BKN004 M29/M32 A3022 RMK AO2 T12891322
PASC 240753Z 25011KT 10SM FEW010 M29/M32 A3022 RMK AO2 SLP235 T12891322
PASC 240653Z 24010KT 10SM FEW010 M29/M32 A3021 RMK AO2 SLP232 T12941322
PASC 240553Z 25011KT 10SM CLR M28/M31 A3020 RMK AO2 SLP228 T12831311 11239 21283 51017
PASC 240527Z 25011KT 10SM SCT011 M28/M31 A3019 RMK AO2 T12781306
PASC 240453Z 25011KT 10SM OVC011 M27/M30 A3018 RMK AO2 SLP224 T12721300
PASC 240353Z 25012KT 10SM OVC011 M26/M29 A3016 RMK AO2 SLP217 T12611289
PASC 240327Z 25011KT 10SM OVC010 M26/M29 A3016 RMK AO2 T12561289
PASC 240253Z 25012KT 10SM OVC009 M26/M29 A3015 RMK AO2 CIG 007V011 SLP212 T12561289 51014
PASC 240153Z 26011KT 10SM OVC008 M26/M28 A3014 RMK AO2 SLP208 T12561283
PASC 240053Z 26013KT 10SM OVC007 M24/M27 A3012 RMK AO2 SLP204 T12441272
PASC 232353Z 26012KT 10SM OVC008 M24/M27 A3011 RMK AO2 CIG 006V010 SLP198 I6007 T12391267 11217 21239 53012
PASC 232301Z 26011KT 8SM OVC005 M23/M25 A3009 RMK AO2 T12281250
PASC 232253Z 26014KT 8SM BR OVC004 M23/M24 A3009 RMK AO2 SLP192 T12281244
PASC 232249Z 26015KT 8SM BR OVC004 M23/M24 A3009 RMK AO2
PASC 232222Z 26015KT 10SM SCT004 OVC011 M22/M25 A3008 RMK AO2 T12221250
PASC 232153Z 26014KT 8SM OVC011 M22/M24 A3007 RMK AO2 SLP185 I1001 T12171244
PASC 232053Z 27012KT 4SM BR OVC007 M22/M24 A3005 RMK AO2 SLP179 I1002 I3006 T12171239 53014
PASC 232042Z 28014KT 4SM BR OVC007 M22/M24 A3005 RMK AO2 I1002 T12171239
PASC 232032Z 27015KT 2 1/2SM BR OVC007 M22/M24 A3005 RMK AO2 I1001 T12171239
PASC 232019Z 27016KT 1 3/4SM BR OVC006 M22/M24 A3004 RMK AO2 I1001 T12171239
PASC 231953Z 27014KT 5SM HZ OVC005 M22/M24 A3003 RMK AO2 SLP173 I1001 T12171244
PASC 231853Z 26013KT 5SM HZ OVC007 M22/M24 A3001 RMK AO2 SLP167 I1003 T12171244
PASC 231753Z 26011KT 7SM OVC010 M22/M25 A2999 RMK AO2 SLP159 I1001 I6004 T12171250 11217 21244 53014
PASC 231700Z 26012KT 10SM SCT010 OVC013 M22/M25 A2998 RMK AO2 T12171250
PASC 231653Z 26012KT 10SM BKN009 OVC013 M22/M25 A2998 RMK AO2 SLP153 I1000 T12171250
PASC 231553Z 25009KT 9SM SCT008 OVC017 M23/M26 A2996 RMK AO2 SLP149 I1001 T12281256